Time;durP1;ratioP1;P1;durP2;ratioP2;P2;SDS_P1;SDS_P2;PMS_P1;PMS_P2;Temp;Humidity;BMP_temperature;BMP_pressure;BME280_temperature;BME280_humidity;BME280_pressure;Samples;Min_cycle;Max_cycle;Signal;HPM_P1;HPM_P2
2021/09/14 00:02:16;;;;;;;25.55;8.23;;;21.90;99.90;;;;;;4874790;29;20080;-84
2021/09/14 00:04:41;;;;;;;27.25;8.45;;;21.90;99.90;;;;;;4859483;29;20112;-84
2021/09/14 00:07:07;;;;;;;19.25;7.70;;;21.90;99.90;;;;;;4859127;29;20574;-84
2021/09/14 00:09:33;;;;;;;20.23;7.43;;;21.90;99.90;;;;;;4859482;29;20025;-84
2021/09/14 00:11:59;;;;;;;18.73;7.20;;;21.90;99.90;;;;;;4858788;29;20037;-85
2021/09/14 00:14:25;;;;;;;25.63;9.35;;;21.90;99.90;;;;;;4877195;29;20025;-85
2021/09/14 00:16:51;;;;;;;28.83;8.13;;;22.00;99.90;;;;;;4860348;29;20278;-85
2021/09/14 00:19:16;;;;;;;23.38;7.70;;;22.00;99.90;;;;;;4860604;29;20330;-85
2021/09/14 00:21:43;;;;;;;21.75;7.63;;;21.90;99.90;;;;;;4877937;29;20037;-85
2021/09/14 00:24:09;;;;;;;18.77;6.47;;;21.90;99.90;;;;;;4877512;29;20116;-85
2021/09/14 00:26:35;;;;;;;23.13;6.63;;;21.90;99.90;;;;;;4877727;29;20452;-84
2021/09/14 00:29:00;;;;;;;25.05;7.68;;;21.90;99.90;;;;;;4877759;29;20561;-84
2021/09/14 00:31:27;;;;;;;21.88;5.95;;;21.90;99.90;;;;;;4860518;29;20128;-84
2021/09/14 00:33:53;;;;;;;23.58;6.30;;;21.80;99.90;;;;;;4877710;29;20023;-83
2021/09/14 00:36:19;;;;;;;20.77;6.25;;;21.70;99.90;;;;;;4874982;29;20441;-84
2021/09/14 00:38:44;;;;;;;19.25;6.25;;;21.60;99.90;;;;;;4859135;29;20034;-84
2021/09/14 00:41:10;;;;;;;23.23;6.10;;;21.60;99.90;;;;;;4858794;29;20026;-84
2021/09/14 00:43:37;;;;;;;21.23;5.72;;;21.50;99.90;;;;;;4858789;29;20034;-84
2021/09/14 00:46:02;;;;;;;25.10;5.97;;;21.50;99.90;;;;;;4870460;29;20494;-84
2021/09/14 00:48:28;;;;;;;20.58;6.00;;;21.40;99.90;;;;;;4876916;29;20039;-84
2021/09/14 00:50:54;;;;;;;21.67;6.20;;;21.40;99.90;;;;;;4877178;29;20392;-85
2021/09/14 00:53:20;;;;;;;20.38;5.07;;;21.30;99.90;;;;;;4877231;29;20072;-84
2021/09/14 00:55:45;;;;;;;22.35;5.35;;;21.20;99.90;;;;;;4877345;29;20099;-84
2021/09/14 00:58:11;;;;;;;18.55;5.70;;;21.20;99.90;;;;;;4877362;29;20120;-84
2021/09/14 01:00:37;;;;;;;15.32;4.13;;;21.10;99.90;;;;;;4877001;29;20077;-84
2021/09/14 01:03:04;;;;;;;18.98;4.47;;;21.00;99.90;;;;;;4877080;29;20487;-84
2021/09/14 01:05:30;;;;;;;15.05;4.05;;;21.00;99.90;;;;;;4876813;29;20047;-84
2021/09/14 01:07:55;;;;;;;14.55;4.80;;;21.00;99.90;;;;;;4877093;29;20475;-84
2021/09/14 01:10:22;;;;;;;18.83;4.38;;;21.10;99.90;;;;;;4876780;29;20032;-84
2021/09/14 01:12:48;;;;;;;15.32;4.47;;;21.10;99.90;;;;;;4876597;29;20072;-84
2021/09/14 01:15:15;;;;;;;16.10;4.75;;;21.10;99.90;;;;;;4876626;29;20040;-84
2021/09/14 01:17:41;;;;;;;17.60;4.82;;;21.10;99.90;;;;;;4877239;29;20035;-84
2021/09/14 01:20:08;;;;;;;17.63;5.00;;;21.10;99.90;;;;;;4876733;29;20033;-84
2021/09/14 01:22:34;;;;;;;16.90;4.82;;;21.10;99.90;;;;;;4876408;29;20017;-84
2021/09/14 01:25:01;;;;;;;19.73;4.47;;;21.10;99.90;;;;;;4877091;29;20097;-84
2021/09/14 01:27:27;;;;;;;15.30;4.38;;;21.10;99.90;;;;;;4876539;29;20068;-84
2021/09/14 01:32:37;;;;;;;15.15;4.85;;;21.10;99.90;;;;;;4876379;29;20056;-83
2021/09/14 01:35:23;;;;;;;19.27;5.38;;;21.10;99.90;;;;;;4876692;29;20115;-83
2021/09/14 01:37:49;;;;;;;18.52;5.20;;;21.10;99.90;;;;;;4862556;29;20056;-83
2021/09/14 01:40:17;;;;;;;15.52;5.43;;;21.10;99.90;;;;;;4856579;29;20499;-83
2021/09/14 01:42:42;;;;;;;16.40;5.05;;;21.10;99.90;;;;;;4857788;29;20029;-83
2021/09/14 01:45:10;;;;;;;21.88;5.65;;;21.10;99.90;;;;;;4857681;29;20412;-83
2021/09/14 01:47:36;;;;;;;13.63;4.78;;;21.00;99.90;;;;;;4857510;29;20025;-83
2021/09/14 01:50:06;;;;;;;22.98;5.00;;;21.00;99.90;;;;;;4873966;29;20076;-82
2021/09/14 01:52:33;;;;;;;15.13;4.85;;;21.00;99.90;;;;;;4876517;29;20043;-82
2021/09/14 01:55:07;;;;;;;18.13;5.47;;;21.00;99.90;;;;;;4876113;29;20105;-83
2021/09/14 01:57:38;;;;;;;;;;;21.00;99.90;;;;;;4876777;29;20036;-83
2021/09/14 02:00:09;;;;;;;16.42;4.80;;;21.00;99.90;;;;;;4876046;29;19915;-83
2021/09/14 02:58:50;;;;;;;19.67;5.10;;;20.70;99.90;;;;;;4879114;29;20482;-84
2021/09/14 03:01:16;;;;;;;16.33;4.90;;;20.70;99.90;;;;;;4879321;29;20047;-84
2021/09/14 03:03:45;;;;;;;10.95;4.50;;;20.60;99.90;;;;;;4879193;29;20025;-84
2021/09/14 03:06:11;;;;;;;15.77;5.13;;;20.60;99.90;;;;;;4879171;29;20025;-84
2021/09/14 03:08:41;;;;;;;16.90;5.20;;;20.50;99.90;;;;;;4879062;29;20028;-84
2021/09/14 03:11:12;;;;;;;14.55;5.45;;;20.60;99.90;;;;;;4879005;29;20085;-84
2021/09/14 03:13:39;;;;;;;17.00;5.15;;;20.50;99.90;;;;;;4858753;29;20143;-84
2021/09/14 03:16:06;;;;;;;16.83;4.95;;;20.50;99.90;;;;;;4859032;29;20052;-84
2021/09/14 03:18:31;;;;;;;12.52;4.95;;;20.50;99.90;;;;;;4859298;29;20038;-84
2021/09/14 03:20:57;;;;;;;17.65;5.07;;;20.50;99.90;;;;;;4860477;29;20037;-84
2021/09/14 03:23:23;;;;;;;12.55;5.70;;;20.50;99.90;;;;;;4860357;29;20038;-85
2021/09/14 03:25:49;;;;;;;14.48;5.13;;;20.50;99.90;;;;;;4860257;29;20025;-84
2021/09/14 03:28:16;;;;;;;13.93;4.88;;;20.50;99.90;;;;;;4860611;29;20482;-84
2021/09/14 03:30:42;;;;;;;13.15;5.50;;;20.50;99.90;;;;;;4859909;29;20030;-86
2021/09/14 03:33:09;;;;;;;15.35;5.43;;;20.50;99.90;;;;;;4860155;29;20198;-85
2021/09/14 03:35:35;;;;;;;12.98;5.35;;;20.40;99.90;;;;;;4860121;29;20428;-85
2021/09/14 03:38:00;;;;;;;18.60;5.85;;;20.40;99.90;;;;;;4858226;29;20030;-84
2021/09/14 03:40:26;;;;;;;12.40;5.00;;;20.40;99.90;;;;;;4841794;29;20042;-85
2021/09/14 03:42:52;;;;;;;13.98;5.50;;;20.30;99.90;;;;;;4841309;29;20470;-84
2021/09/14 03:45:18;;;;;;;13.25;5.45;;;20.30;99.90;;;;;;4854624;29;20030;-85
2021/09/14 03:47:43;;;;;;;20.02;5.70;;;20.30;99.90;;;;;;4841542;29;20094;-85
2021/09/14 03:50:10;;;;;;;19.23;5.43;;;20.20;99.90;;;;;;4841532;29;20038;-85
2021/09/14 03:52:36;;;;;;;16.85;5.68;;;20.20;99.90;;;;;;4841093;29;20038;-85
2021/09/14 03:55:02;;;;;;;11.30;5.00;;;20.20;99.90;;;;;;4841181;29;20037;-85
2021/09/14 03:57:27;;;;;;;10.80;5.30;;;20.10;99.90;;;;;;4841326;29;20029;-85
2021/09/14 03:59:53;;;;;;;16.13;5.85;;;20.10;99.90;;;;;;4841224;29;20363;-84
2021/09/14 04:02:34;;;;;;;16.52;5.72;;;20.00;99.90;;;;;;4841028;29;20030;-85
2021/09/14 04:10:21;;;;;;;18.75;6.10;;;19.90;99.90;;;;;;4836197;29;20030;-84
2021/09/14 04:12:47;;;;;;;13.02;5.80;;;19.90;99.90;;;;;;4847654;29;20065;-85
2021/09/14 04:15:12;;;;;;;14.63;5.85;;;19.90;99.90;;;;;;4859245;29;20041;-85
2021/09/14 04:17:38;;;;;;;14.88;6.25;;;19.90;99.90;;;;;;4858038;29;20554;-85
2021/09/14 04:20:04;;;;;;;12.70;5.43;;;19.90;99.90;;;;;;4859274;29;20611;-85
2021/09/14 04:22:30;;;;;;;16.52;5.57;;;19.90;99.90;;;;;;4857727;29;20395;-85
2021/09/14 04:24:56;;;;;;;13.52;5.78;;;19.90;99.90;;;;;;4859500;29;20034;-85
2021/09/14 04:27:21;;;;;;;11.35;5.53;;;19.90;99.90;;;;;;4858978;29;20030;-85
2021/09/14 04:29:47;;;;;;;16.17;6.50;;;20.00;99.90;;;;;;4859077;29;20037;-86
2021/09/14 04:32:13;;;;;;;9.63;5.03;;;20.00;99.90;;;;;;4858894;29;20458;-85
2021/09/14 04:34:38;;;;;;;14.30;5.47;;;20.10;99.90;;;;;;4857107;29;20061;-85
2021/09/14 04:37:04;;;;;;;12.93;5.90;;;20.20;99.90;;;;;;4857329;29;20033;-85
2021/09/14 04:39:30;;;;;;;14.65;5.15;;;20.20;99.90;;;;;;4857139;29;20073;-85
2021/09/14 04:41:56;;;;;;;15.00;5.88;;;20.30;99.90;;;;;;4858291;29;20481;-86
2021/09/14 04:44:21;;;;;;;14.07;5.10;;;20.30;99.90;;;;;;4858158;29;20176;-86
2021/09/14 04:46:47;;;;;;;10.75;5.20;;;20.30;99.90;;;;;;4858016;29;20029;-85
2021/09/14 04:49:13;;;;;;;14.80;5.65;;;20.30;99.90;;;;;;4858154;29;20022;-86
2021/09/14 04:51:38;;;;;;;13.25;5.25;;;20.40;99.90;;;;;;4858756;29;20036;-86
2021/09/14 04:54:04;;;;;;;9.38;4.85;;;20.40;99.90;;;;;;4856614;29;20033;-86
2021/09/14 04:56:30;;;;;;;10.93;4.80;;;20.40;99.90;;;;;;4857908;29;20040;-86
2021/09/14 04:58:56;;;;;;;14.07;5.68;;;20.20;99.90;;;;;;4858085;29;20424;-86
2021/09/14 05:01:22;;;;;;;16.40;6.00;;;20.20;99.90;;;;;;4857602;29;20101;-87
2021/09/14 05:03:49;;;;;;;14.25;5.63;;;20.10;99.90;;;;;;4857330;29;20514;-86
2021/09/14 05:06:15;;;;;;;11.52;5.22;;;20.10;99.90;;;;;;4859689;29;20022;-86
2021/09/14 05:08:41;;;;;;;13.15;5.18;;;20.10;99.90;;;;;;4859728;29;20068;-86
2021/09/14 05:11:06;;;;;;;7.60;4.47;;;20.10;99.90;;;;;;4858416;29;20052;-86
2021/09/14 05:13:33;;;;;;;9.95;4.90;;;20.10;99.90;;;;;;4858376;29;20132;-86
2021/09/14 05:15:59;;;;;;;12.60;5.65;;;20.10;99.90;;;;;;4859775;29;20029;-87
2021/09/14 05:18:25;;;;;;;14.60;5.20;;;20.10;99.90;;;;;;4861570;29;20021;-87
2021/09/14 05:20:52;;;;;;;18.98;6.20;;;20.10;99.90;;;;;;4848547;29;20124;-87
2021/09/14 05:23:30;;;;;;;15.23;5.60;;;20.10;99.90;;;;;;4867687;29;20040;-86
2021/09/14 05:26:01;;;;;;;9.52;4.97;;;20.00;99.90;;;;;;4858944;29;20061;-87
2021/09/14 05:28:27;;;;;;;9.50;5.05;;;20.00;99.90;;;;;;4868737;29;20061;-86
2021/09/14 05:30:53;;;;;;;14.25;5.78;;;20.00;99.90;;;;;;4863133;29;20393;-86
2021/09/14 05:33:19;;;;;;;12.45;5.32;;;20.00;99.90;;;;;;4864546;29;20112;-86
2021/09/14 05:35:46;;;;;;;17.42;6.28;;;20.00;99.90;;;;;;4858351;29;20491;-86
2021/09/14 05:38:14;;;;;;;19.85;6.00;;;20.00;99.90;;;;;;4859140;29;20029;-86
2021/09/14 05:40:40;;;;;;;11.27;5.25;;;20.00;99.90;;;;;;4856701;29;20063;-87
2021/09/14 05:43:05;;;;;;;12.07;5.93;;;19.90;99.90;;;;;;4855960;29;20025;-87
2021/09/14 05:45:32;;;;;;;15.13;5.03;;;19.90;99.90;;;;;;4857430;29;20022;-86
2021/09/14 05:47:58;;;;;;;11.57;5.50;;;19.90;99.90;;;;;;4847681;29;20056;-87
2021/09/14 05:50:24;;;;;;;12.65;5.63;;;19.90;99.90;;;;;;4850138;29;20041;-86
2021/09/14 05:52:50;;;;;;;13.85;5.95;;;19.90;99.90;;;;;;4848260;29;20053;-87
2021/09/14 05:55:15;;;;;;;11.63;5.38;;;19.90;99.90;;;;;;4857652;29;20125;-87
2021/09/14 05:57:41;;;;;;;13.02;5.60;;;19.80;99.90;;;;;;4857562;29;20026;-86
2021/09/14 06:00:08;;;;;;;11.77;5.25;;;19.80;99.90;;;;;;4854697;29;20685;-87
2021/09/14 06:02:33;;;;;;;12.13;5.75;;;19.80;99.90;;;;;;4855897;29;20308;-87
2021/09/14 06:04:59;;;;;;;14.48;5.25;;;19.90;99.90;;;;;;4856393;29;20387;-87
2021/09/14 06:07:25;;;;;;;13.75;5.78;;;19.80;99.90;;;;;;4857557;29;20026;-87
2021/09/14 06:09:50;;;;;;;10.38;5.68;;;19.80;99.90;;;;;;4856213;29;20056;-88
2021/09/14 06:12:16;;;;;;;10.27;5.15;;;19.90;99.90;;;;;;4857377;29;20092;-87
2021/09/14 06:14:42;;;;;;;7.97;5.18;;;20.00;99.90;;;;;;4857569;29;20322;-88
2021/09/14 06:17:07;;;;;;;10.35;5.25;;;20.00;99.90;;;;;;4860989;29;20048;-88
2021/09/14 06:19:33;;;;;;;17.65;6.13;;;20.00;99.90;;;;;;4861316;29;20022;-87
2021/09/14 06:22:01;;;;;;;11.65;6.22;;;20.00;99.90;;;;;;4860147;29;20282;-87
2021/09/14 06:24:27;;;;;;;13.75;5.80;;;20.00;99.90;;;;;;4861665;29;20026;-87
2021/09/14 06:26:52;;;;;;;16.08;5.90;;;20.00;99.90;;;;;;4861183;29;20025;-87
2021/09/14 06:29:20;;;;;;;11.85;5.22;;;20.00;99.90;;;;;;4861297;29;20387;-87
2021/09/14 06:31:46;;;;;;;15.85;5.20;;;20.00;99.90;;;;;;4861371;29;20082;-87
2021/09/14 06:34:11;;;;;;;14.55;6.35;;;20.10;99.90;;;;;;4860903;29;20014;-87
2021/09/14 06:36:37;;;;;;;12.32;6.30;;;20.10;99.90;;;;;;4859788;29;20484;-87
2021/09/14 06:39:03;;;;;;;9.85;5.28;;;20.20;99.90;;;;;;4861183;29;20022;-87
2021/09/14 06:41:29;;;;;;;12.88;5.40;;;20.20;99.90;;;;;;4859875;29;20041;-87
2021/09/14 06:43:54;;;;;;;12.80;5.43;;;20.30;99.90;;;;;;4861025;29;20033;-87
2021/09/14 06:46:22;;;;;;;12.20;6.13;;;20.30;99.90;;;;;;4860675;29;20482;-87
2021/09/14 06:48:48;;;;;;;13.10;5.03;;;20.40;99.90;;;;;;4861139;29;20104;-87
2021/09/14 06:51:14;;;;;;;13.73;5.18;;;20.40;99.90;;;;;;4860724;29;20100;-87
2021/09/14 06:53:40;;;;;;;11.68;5.38;;;20.40;99.90;;;;;;4860743;29;20062;-87
2021/09/14 06:56:07;;;;;;;13.00;5.07;;;20.60;99.90;;;;;;4859526;29;20034;-87
2021/09/14 06:58:32;;;;;;;12.60;5.32;;;20.70;99.90;;;;;;4860722;29;20387;-88
2021/09/14 07:00:58;;;;;;;17.52;5.85;;;20.90;99.90;;;;;;4860517;29;20022;-87
2021/09/14 07:03:24;;;;;;;15.35;5.32;;;21.00;99.90;;;;;;4860999;29;20022;-87
2021/09/14 07:05:49;;;;;;;9.50;4.68;;;21.10;99.90;;;;;;4860672;29;20422;-87
2021/09/14 07:08:15;;;;;;;16.25;5.07;;;21.10;99.90;;;;;;4860345;29;20091;-88
2021/09/14 07:10:41;;;;;;;11.18;4.63;;;21.10;99.90;;;;;;4860514;29;20109;-88
2021/09/14 07:13:07;;;;;;;14.43;4.60;;;21.10;99.90;;;;;;4859767;29;20057;-87
2021/09/14 07:15:34;;;;;;;9.88;4.65;;;21.10;99.90;;;;;;4860348;29;20029;-87
2021/09/14 07:18:00;;;;;;;11.35;5.20;;;21.10;99.90;;;;;;4860392;29;20030;-88
2021/09/14 07:20:26;;;;;;;16.52;4.47;;;21.20;99.90;;;;;;4860481;29;20061;-88
2021/09/14 07:22:52;;;;;;;9.73;4.55;;;21.30;99.90;;;;;;4860552;29;20036;-87
2021/09/14 07:25:17;;;;;;;16.42;5.10;;;21.30;99.90;;;;;;4860052;29;20458;-88
2021/09/14 07:27:43;;;;;;;16.75;5.18;;;21.40;99.90;;;;;;4858437;29;20139;-87
2021/09/14 07:30:09;;;;;;;9.85;4.60;;;21.40;99.90;;;;;;4859794;29;20376;-88
2021/09/14 07:32:35;;;;;;;16.15;5.35;;;21.40;99.90;;;;;;4860140;29;20037;-88
2021/09/14 07:35:02;;;;;;;13.55;4.82;;;21.50;99.90;;;;;;4859138;29;20041;-88
2021/09/14 07:37:28;;;;;;;17.63;5.00;;;21.60;99.90;;;;;;4860029;29;20036;-88
2021/09/14 07:39:53;;;;;;;14.45;4.70;;;21.70;99.90;;;;;;4860131;29;20092;-87
2021/09/14 07:42:20;;;;;;;13.88;5.00;;;21.80;99.90;;;;;;4860263;29;20132;-88
2021/09/14 07:44:45;;;;;;;12.65;4.85;;;21.80;99.90;;;;;;4859778;29;20517;-88
2021/09/14 07:47:11;;;;;;;15.75;4.80;;;21.80;99.90;;;;;;4858340;29;20120;-88
2021/09/14 07:49:37;;;;;;;12.48;4.80;;;21.90;99.90;;;;;;4858497;29;20030;-88
2021/09/14 07:52:03;;;;;;;19.95;5.15;;;21.90;99.90;;;;;;4858683;29;20396;-87
2021/09/14 07:54:29;;;;;;;12.73;5.57;;;22.10;99.90;;;;;;4859645;29;20122;-88
2021/09/14 07:56:55;;;;;;;13.15;5.25;;;22.10;99.90;;;;;;4859757;29;20086;-86
2021/09/14 07:59:20;;;;;;;12.20;4.72;;;22.10;99.90;;;;;;4859552;29;20025;-87
2021/09/14 08:01:46;;;;;;;16.17;4.97;;;22.20;99.90;;;;;;4859363;29;20105;-87
2021/09/14 08:04:12;;;;;;;13.77;4.85;;;22.20;99.90;;;;;;4859654;29;20100;-88
2021/09/14 08:06:37;;;;;;;13.15;4.82;;;22.20;99.90;;;;;;4858168;29;20048;-88
2021/09/14 08:09:03;;;;;;;15.07;5.20;;;22.30;99.90;;;;;;4858233;29;20029;-87
2021/09/14 08:11:29;;;;;;;12.48;4.82;;;22.30;99.90;;;;;;4859277;29;20082;-88
2021/09/14 08:13:55;;;;;;;14.82;5.03;;;22.30;99.90;;;;;;4869789;29;20120;-87
2021/09/14 08:16:20;;;;;;;10.05;4.78;;;22.20;99.90;;;;;;4874843;29;20073;-87
2021/09/14 08:18:46;;;;;;;13.57;5.05;;;22.30;99.90;;;;;;4872340;29;20022;-88
2021/09/14 08:21:12;;;;;;;11.55;4.57;;;22.30;99.90;;;;;;4862982;29;20522;-88
2021/09/14 08:23:37;;;;;;;14.70;5.15;;;22.30;99.90;;;;;;4868189;29;20546;-88
2021/09/14 08:26:04;;;;;;;12.43;5.05;;;22.40;99.90;;;;;;4861178;29;20033;-88
2021/09/14 08:28:30;;;;;;;13.82;4.80;;;22.60;99.90;;;;;;4877681;29;20506;-88
2021/09/14 08:30:56;;;;;;;12.95;4.55;;;22.60;99.90;;;;;;4860174;29;20036;-88
2021/09/14 08:33:22;;;;;;;12.48;5.18;;;22.70;99.90;;;;;;4859071;29;20029;-88
2021/09/14 08:35:48;;;;;;;14.60;5.05;;;22.70;99.90;;;;;;4859027;29;20032;-88
2021/09/14 08:38:13;;;;;;;12.30;4.78;;;22.70;99.90;;;;;;4857922;29;20032;-88
2021/09/14 08:40:42;;;;;;;11.50;4.22;;;22.80;99.90;;;;;;4858763;29;20058;-88
2021/09/14 08:43:12;;;;;;;13.23;4.90;;;22.90;99.90;;;;;;4858712;29;20047;-88
2021/09/14 08:45:38;;;;;;;9.52;4.70;;;23.00;99.90;;;;;;4867596;29;20116;-87
2021/09/14 08:48:05;;;;;;;14.43;4.95;;;23.10;99.90;;;;;;4876191;29;20117;-87
2021/09/14 08:50:31;;;;;;;12.48;4.63;;;23.20;99.90;;;;;;4842141;29;20077;-88
2021/09/14 08:52:57;;;;;;;15.63;4.72;;;23.20;99.90;;;;;;4858449;29;20041;-87
2021/09/14 08:55:23;;;;;;;10.07;4.75;;;23.30;99.90;;;;;;4858492;29;20024;-88
2021/09/14 08:57:52;;;;;;;10.90;4.75;;;23.40;99.90;;;;;;4858691;29;20040;-88
2021/09/14 09:00:39;;;;;;;11.85;4.60;;;23.30;99.90;;;;;;4858010;29;20021;-87
2021/09/14 09:03:05;;;;;;;9.73;4.60;;;23.20;99.90;;;;;;4860275;29;20468;-88
2021/09/14 09:05:36;;;;;;;14.35;4.88;;;23.10;99.90;;;;;;4860161;29;20116;-88
2021/09/14 09:08:03;;;;;;;10.77;4.45;;;23.10;99.90;;;;;;4860105;29;20069;-87
2021/09/14 09:10:30;;;;;;;13.55;4.72;;;23.10;99.90;;;;;;4877012;29;20028;-88
2021/09/14 09:12:57;;;;;;;9.95;5.07;;;23.00;99.90;;;;;;4877013;29;20067;-88
2021/09/14 09:15:27;;;;;;;13.95;5.07;;;22.90;99.90;;;;;;4859877;29;20123;-88
2021/09/14 09:18:03;;;;;;;12.02;4.80;;;22.80;99.90;;;;;;4859982;29;20530;-88
2021/09/14 09:20:30;;;;;;;13.93;4.57;;;22.90;99.90;;;;;;4874962;29;20032;-88
2021/09/14 09:22:57;;;;;;;11.93;5.43;;;23.00;99.90;;;;;;4870518;29;20026;-88
2021/09/14 09:25:23;;;;;;;10.52;4.88;;;23.10;99.90;;;;;;4858064;29;20112;-88
2021/09/14 09:28:02;;;;;;;11.27;5.05;;;23.10;99.90;;;;;;4862635;29;20456;-88
2021/09/14 09:30:33;;;;;;;11.25;5.03;;;23.30;99.90;;;;;;4876528;29;20036;-88
2021/09/14 09:33:03;;;;;;;11.88;5.18;;;23.40;99.90;;;;;;4876172;29;20029;-88
2021/09/14 09:35:31;;;;;;;13.43;4.78;;;23.40;99.90;;;;;;4859511;29;20266;-88
2021/09/14 09:37:58;;;;;;;11.55;5.18;;;23.40;99.90;;;;;;4876467;29;20478;-88
2021/09/14 09:40:31;;;;;;;13.05;4.82;;;23.40;99.90;;;;;;4859544;29;20029;-89
2021/09/14 09:43:07;;;;;;;14.20;4.50;;;23.30;99.90;;;;;;4875096;29;20048;-88
2021/09/14 09:45:47;;;;;;;13.15;4.95;;;23.30;99.90;;;;;;4876766;29;20111;-88
2021/09/14 09:48:15;;;;;;;12.98;5.18;;;23.20;99.90;;;;;;4876361;29;20025;-88
2021/09/14 09:50:42;;;;;;;14.95;5.82;;;23.20;99.90;;;;;;4859361;29;20450;-88
2021/09/14 09:53:10;;;;;;;16.08;5.43;;;23.10;99.90;;;;;;4876098;29;20049;-88
2021/09/14 09:55:36;;;;;;;14.82;5.00;;;23.00;99.90;;;;;;4859312;29;20078;-88
2021/09/14 09:58:06;;;;;;;13.27;5.72;;;22.90;99.90;;;;;;4876279;29;20483;-88
2021/09/14 10:00:39;;;;;;;11.85;5.55;;;22.80;99.90;;;;;;4876254;29;20092;-88
2021/09/14 10:03:10;;;;;;;14.38;5.30;;;22.60;99.90;;;;;;4859405;29;20025;-88
2021/09/14 10:05:39;;;;;;;12.88;5.10;;;22.60;99.90;;;;;;4876689;29;20071;-88
2021/09/14 10:08:10;;;;;;;11.77;5.47;;;22.40;99.90;;;;;;4859133;29;20490;-87
2021/09/14 10:10:37;;;;;;;13.52;5.57;;;22.40;99.90;;;;;;4859285;29;20026;-87
2021/09/14 10:13:06;;;;;;;16.92;6.15;;;22.40;99.90;;;;;;4875706;29;20048;-86
2021/09/14 10:15:40;;;;;;;20.75;11.57;;;22.30;99.90;;;;;;4876122;29;20494;-86
2021/09/14 10:18:06;;;;;;;12.13;6.82;;;22.10;99.90;;;;;;4875942;29;20033;-86
2021/09/14 10:20:41;;;;;;;15.23;6.53;;;22.00;99.90;;;;;;4875861;29;20494;-87
2021/09/14 10:23:19;;;;;;;16.20;7.00;;;21.90;99.90;;;;;;4872742;29;20498;-86
2021/09/14 10:25:49;;;;;;;12.90;6.68;;;21.90;99.90;;;;;;4872673;29;20490;-87
2021/09/14 10:28:16;;;;;;;17.92;8.25;;;22.00;99.90;;;;;;4864260;29;20090;-87
2021/09/14 10:30:43;;;;;;;12.48;6.68;;;22.10;99.90;;;;;;4866990;29;20570;-87
2021/09/14 10:33:27;;;;;;;14.25;5.65;;;22.20;99.90;;;;;;4865326;29;20060;-87
2021/09/14 10:35:53;;;;;;;16.70;5.70;;;22.20;99.90;;;;;;4857240;29;20017;-88
2021/09/14 10:38:20;;;;;;;16.48;5.93;;;22.30;99.90;;;;;;4860917;29;20032;-87
2021/09/14 10:40:55;;;;;;;13.80;5.45;;;22.50;99.90;;;;;;4866672;29;20375;-88
2021/09/14 10:43:33;;;;;;;14.80;5.15;;;22.80;99.90;;;;;;4857052;29;20513;-87
2021/09/14 10:46:00;;;;;;;13.75;6.32;;;22.80;99.90;;;;;;4857410;29;20041;-88
2021/09/14 10:48:32;;;;;;;14.30;5.72;;;22.90;99.90;;;;;;4856811;29;20057;-88
2021/09/14 10:51:12;;;;;;;12.10;6.07;;;23.00;99.90;;;;;;4840151;29;20036;-88
2021/09/14 10:53:39;;;;;;;15.10;6.03;;;23.00;99.90;;;;;;4855992;29;20040;-86
2021/09/14 10:56:09;;;;;;;10.15;5.82;;;22.90;99.90;;;;;;4857340;29;20017;-88
2021/09/14 10:58:45;;;;;;;12.98;4.88;;;22.90;99.90;;;;;;4857185;29;20035;-88
2021/09/14 11:01:25;;;;;;;15.30;6.03;;;22.90;99.90;;;;;;4856930;29;20022;-88
2021/09/14 11:04:02;;;;;;;11.80;5.10;;;22.90;99.90;;;;;;4860716;29;20036;-88
2021/09/14 11:06:29;;;;;;;15.18;5.97;;;22.70;99.90;;;;;;4860268;29;20066;-88
2021/09/14 11:08:58;;;;;;;14.38;6.35;;;22.80;99.90;;;;;;4860658;29;20094;-88
2021/09/14 11:11:25;;;;;;;11.77;5.28;;;23.00;99.90;;;;;;4860255;29;20049;-88
2021/09/14 11:13:52;;;;;;;13.43;6.25;;;23.20;99.90;;;;;;4860313;29;20519;-88
2021/09/14 11:16:18;;;;;;;16.45;5.85;;;23.20;99.90;;;;;;4858941;29;20025;-88
2021/09/14 11:18:45;;;;;;;17.42;5.97;;;23.20;99.90;;;;;;4864994;29;20418;-88
2021/09/14 11:21:13;;;;;;;19.10;6.30;;;23.20;99.90;;;;;;4869198;29;20409;-88
2021/09/14 11:23:41;;;;;;;16.80;6.15;;;23.20;99.90;;;;;;4859397;29;20072;-88
2021/09/14 11:26:15;;;;;;;14.18;5.97;;;23.20;99.90;;;;;;4847617;29;20022;-87
2021/09/14 11:28:52;;;;;;;15.00;6.35;;;23.50;99.90;;;;;;4860703;29;20065;-85
2021/09/14 11:31:18;;;;;;;15.15;5.80;;;23.80;99.90;;;;;;4852130;29;20025;-85
2021/09/14 11:33:44;;;;;;;12.95;5.38;;;23.80;99.90;;;;;;4859295;29;20570;-85
2021/09/14 11:36:11;;;;;;;10.88;5.80;;;23.90;99.90;;;;;;4859625;29;20651;-85
2021/09/14 11:38:37;;;;;;;15.10;5.45;;;23.80;99.90;;;;;;4859360;29;20036;-84
2021/09/14 11:41:09;;;;;;;15.57;5.70;;;24.00;99.90;;;;;;4857913;29;20045;-85
2021/09/14 11:43:37;;;;;;;16.20;6.35;;;24.00;99.90;;;;;;4859444;29;20033;-85
2021/09/14 11:46:23;;;;;;;14.27;5.68;;;23.70;99.90;;;;;;4859356;29;20064;-85
2021/09/14 11:49:05;;;;;;;16.77;6.97;;;23.50;99.90;;;;;;4859814;29;20034;-85
2021/09/14 11:51:38;;;;;;;16.48;5.57;;;23.40;99.90;;;;;;4859827;29;20056;-85
2021/09/14 11:54:07;;;;;;;16.23;6.20;;;23.50;99.90;;;;;;4862904;29;20036;-85
2021/09/14 11:56:33;;;;;;;15.93;5.90;;;23.40;99.90;;;;;;4864574;29;20116;-84
2021/09/14 11:58:58;;;;;;;14.63;6.20;;;23.20;99.90;;;;;;4865120;29;20076;-84
2021/09/14 12:01:30;;;;;;;14.57;5.88;;;23.20;99.90;;;;;;4863384;29;20085;-84
2021/09/14 12:03:56;;;;;;;15.30;6.05;;;23.10;99.90;;;;;;4862826;29;20029;-85
2021/09/14 12:06:32;;;;;;;18.45;6.55;;;23.00;99.90;;;;;;4863634;29;20121;-85
2021/09/14 12:09:18;;;;;;;13.98;6.38;;;23.00;99.90;;;;;;4862366;29;20093;-85
2021/09/14 12:11:44;;;;;;;16.63;6.53;;;23.30;99.90;;;;;;4862873;29;20033;-85
2021/09/14 12:14:18;;;;;;;14.90;5.70;;;23.50;99.90;;;;;;4863129;29;20065;-85
2021/09/14 12:16:44;;;;;;;14.65;6.22;;;23.70;99.90;;;;;;4857632;29;20433;-85
2021/09/14 12:19:13;;;;;;;12.98;6.18;;;23.90;99.90;;;;;;4862409;29;20025;-85
2021/09/14 12:21:39;;;;;;;11.57;5.60;;;23.90;99.90;;;;;;4853431;29;20029;-85
2021/09/14 12:24:05;;;;;;;14.80;5.50;;;23.90;99.90;;;;;;4858058;29;20160;-85
2021/09/14 12:26:37;;;;;;;15.98;6.10;;;23.90;99.90;;;;;;4859585;29;20235;-85
2021/09/14 12:29:04;;;;;;;15.77;5.88;;;24.00;99.90;;;;;;4858051;29;20046;-85
2021/09/14 12:31:30;;;;;;;14.25;5.13;;;24.10;99.90;;;;;;4857997;29;20406;-86
2021/09/14 12:33:56;;;;;;;10.45;5.63;;;24.30;99.90;;;;;;4857653;29;20506;-85
2021/09/14 12:36:22;;;;;;;14.40;5.60;;;24.50;99.90;;;;;;4859108;29;20516;-84
2021/09/14 12:38:48;;;;;;;13.82;5.45;;;24.50;99.90;;;;;;4858703;29;20113;-85
2021/09/14 12:41:15;;;;;;;10.93;5.25;;;24.70;99.90;;;;;;4858744;29;20021;-84
2021/09/14 12:43:42;;;;;;;11.85;4.80;;;24.70;99.90;;;;;;4857457;29;20402;-85
2021/09/14 12:46:08;;;;;;;9.95;4.88;;;24.90;99.90;;;;;;4858858;29;20104;-84
2021/09/14 12:48:34;;;;;;;15.73;5.57;;;24.80;99.90;;;;;;4857101;29;20097;-85
2021/09/14 12:51:03;;;;;;;14.95;5.35;;;24.90;99.90;;;;;;4858556;29;20093;-85
2021/09/14 12:53:29;;;;;;;16.23;5.53;;;25.10;99.90;;;;;;4858754;29;20129;-85
2021/09/14 12:55:56;;;;;;;14.15;5.80;;;25.10;99.90;;;;;;4857167;29;20284;-85
2021/09/14 12:58:21;;;;;;;13.35;5.85;;;25.20;99.90;;;;;;4857587;29;20120;-85
2021/09/14 13:00:47;;;;;;;15.18;6.45;;;25.20;99.90;;;;;;4857050;29;20132;-85
2021/09/14 13:03:14;;;;;;;13.90;5.68;;;25.50;99.90;;;;;;4858392;29;20062;-85
2021/09/14 13:05:41;;;;;;;15.75;5.18;;;25.80;99.90;;;;;;4858832;29;20030;-86
2021/09/14 13:08:07;;;;;;;14.75;5.53;;;25.90;99.90;;;;;;4858597;29;20028;-86
2021/09/14 13:10:33;;;;;;;14.32;5.07;;;25.90;99.90;;;;;;4858318;29;20029;-86
2021/09/14 13:18:29;;;;;;;13.80;4.95;;;26.40;99.90;;;;;;4857675;29;20097;-85
2021/09/14 13:20:54;;;;;;;14.13;5.93;;;26.40;99.90;;;;;;4858495;29;20479;-86
2021/09/14 13:23:20;;;;;;;12.63;5.10;;;26.40;99.90;;;;;;4858510;29;20037;-87
2021/09/14 13:25:46;;;;;;;12.40;5.40;;;26.80;99.90;;;;;;4857979;29;20056;-86
2021/09/14 13:28:15;;;;;;;18.50;5.82;;;27.00;99.90;;;;;;4860338;29;20026;-87
2021/09/14 13:30:43;;;;;;;13.80;4.60;;;26.90;99.90;;;;;;4858770;29;20053;-95
2021/09/14 13:33:09;;;;;;;10.15;4.53;;;27.10;99.90;;;;;;4867320;29;20132;-94
2021/09/14 13:35:35;;;;;;;12.48;4.00;;;27.50;99.90;;;;;;4856002;29;20049;-93
2021/09/14 13:38:01;;;;;;;11.40;4.35;;;27.70;99.90;;;;;;4864172;29;20113;-94
2021/09/14 13:40:27;;;;;;;9.68;4.30;;;27.80;99.90;;;;;;4854919;29;20064;-94
2021/09/14 13:43:00;;;;;;;11.35;4.60;;;27.50;99.90;;;;;;4853785;29;20025;-94
2021/09/14 13:48:12;;;;;;;11.85;4.22;;;27.70;99.90;;;;;;4864457;29;20051;-95
2021/09/14 13:50:40;;;;;;;9.85;3.33;;;27.40;99.90;;;;;;4847780;29;20022;-95
2021/09/14 13:53:06;;;;;;;10.45;3.47;;;26.90;99.90;;;;;;4861127;29;20053;-94